createdAt,value
2023-03-08T00:01:17.837Z,4.78
2023-03-08T00:03:45.468Z,3.35
2023-03-08T00:06:15.622Z,5.93
2023-03-08T00:08:43.227Z,1.65
2023-03-08T00:11:12.650Z,2.80
2023-03-08T00:13:40.465Z,3.08
2023-03-08T00:16:13.930Z,2.10
2023-03-08T00:18:41.749Z,2.20
2023-03-08T00:21:12.472Z,1.02
2023-03-08T00:23:40.533Z,3.35
2023-03-08T00:26:09.590Z,1.73
2023-03-08T00:28:36.575Z,3.42
2023-03-08T00:31:10.586Z,2.17
2023-03-08T00:33:38.549Z,1.73
2023-03-08T00:36:13.796Z,2.50
2023-03-08T00:38:40.942Z,2.72
2023-03-08T00:41:08.268Z,3.35
2023-03-08T00:43:36.001Z,1.85
2023-03-08T00:46:06.270Z,1.65
2023-03-08T00:48:33.104Z,2.75
2023-03-08T00:51:00.221Z,2.85
2023-03-08T00:53:27.124Z,3.30
2023-03-08T00:56:00.048Z,2.00
2023-03-08T00:58:31.098Z,3.35
2023-03-08T01:00:59.168Z,2.53
2023-03-08T01:03:27.002Z,3.38
2023-03-08T01:05:58.161Z,3.67
2023-03-08T01:08:26.807Z,2.65
2023-03-08T01:10:59.759Z,4.28
2023-03-08T01:13:31.510Z,3.00
2023-03-08T01:15:59.327Z,1.40
2023-03-08T01:18:26.331Z,2.38
2023-03-08T01:21:03.148Z,2.03
2023-03-08T01:23:31.304Z,3.30
2023-03-08T01:26:04.789Z,2.45
2023-03-08T01:28:32.873Z,2.65
2023-03-08T01:31:15.334Z,2.97
2023-03-08T01:33:43.614Z,4.80
2023-03-08T01:36:15.081Z,2.38
2023-03-08T01:38:45.053Z,4.95
2023-03-08T01:41:19.807Z,2.45
2023-03-08T01:43:47.544Z,2.40
2023-03-08T01:46:31.937Z,3.10
2023-03-08T01:49:17.995Z,4.40
2023-03-08T01:52:04.722Z,2.40
2023-03-08T01:54:47.916Z,3.85
2023-03-08T01:57:28.685Z,3.15
2023-03-08T02:00:07.926Z,3.00
2023-03-08T02:03:07.330Z,2.72
2023-03-08T02:05:41.909Z,5.32
2023-03-08T02:08:15.303Z,3.83
2023-03-08T02:10:44.272Z,3.58
2023-03-08T02:13:12.497Z,3.45
2023-03-08T02:15:42.560Z,33.55
2023-03-08T02:18:09.386Z,3.95
2023-03-08T02:20:40.618Z,5.32
2023-03-08T02:23:23.634Z,3.20
2023-03-08T02:26:02.546Z,6.40
2023-03-08T02:28:30.424Z,3.83
2023-03-08T02:30:57.849Z,3.72
2023-03-08T02:33:25.158Z,4.95
2023-03-08T02:35:52.548Z,3.50
2023-03-08T02:38:21.374Z,4.28
2023-03-08T02:40:51.431Z,4.60
2023-03-08T02:43:19.412Z,3.42
2023-03-08T02:45:46.798Z,4.30
2023-03-08T02:48:15.478Z,5.05
2023-03-08T02:50:42.559Z,4.88
2023-03-08T02:53:09.901Z,5.05
2023-03-08T02:55:37.198Z,5.18
2023-03-08T02:58:10.661Z,5.75
2023-03-08T03:00:39.379Z,6.68
2023-03-08T03:03:06.186Z,5.00
2023-03-08T03:05:33.216Z,5.57
2023-03-08T03:08:03.155Z,5.07
2023-03-08T03:10:30.538Z,6.63
2023-03-08T03:12:57.769Z,8.63
2023-03-08T03:15:28.771Z,6.20
2023-03-08T03:17:59.366Z,7.53
2023-03-08T03:20:26.477Z,7.43
2023-03-08T03:22:53.290Z,7.35
2023-03-08T03:25:25.289Z,8.05
2023-03-08T03:27:54.879Z,6.47
2023-03-08T03:30:22.598Z,8.27
2023-03-08T03:32:49.567Z,7.55
2023-03-08T03:35:20.793Z,7.80
2023-03-08T03:37:47.600Z,8.13
2023-03-08T03:40:15.019Z,7.28
2023-03-08T03:42:44.612Z,7.40
2023-03-08T03:45:13.913Z,6.07
2023-03-08T03:47:40.709Z,10.10
2023-03-08T03:50:10.224Z,8.68
2023-03-08T03:53:02.953Z,11.27
2023-03-08T03:55:29.799Z,12.13
2023-03-08T03:57:57.009Z,8.07
2023-03-08T04:00:23.941Z,10.85
2023-03-08T04:03:01.761Z,8.25
2023-03-08T04:05:29.882Z,11.10
2023-03-08T04:07:56.769Z,11.15
2023-03-08T04:10:27.419Z,10.35
2023-03-08T04:12:54.361Z,10.30
2023-03-08T04:15:22.451Z,10.50
2023-03-08T04:17:52.381Z,10.80
2023-03-08T04:20:21.729Z,12.13
2023-03-08T04:22:54.522Z,11.98
2023-03-08T04:25:27.377Z,12.75
2023-03-08T04:27:58.645Z,11.65
2023-03-08T04:30:25.757Z,13.00
2023-03-08T04:32:53.989Z,13.57
2023-03-08T04:35:24.125Z,14.27
2023-03-08T04:37:53.451Z,12.75
2023-03-08T04:40:22.934Z,13.63
2023-03-08T04:42:55.740Z,15.68
2023-03-08T04:45:27.981Z,14.50
2023-03-08T04:47:57.631Z,18.20
2023-03-08T04:50:24.758Z,22.80
2023-03-08T04:52:54.196Z,21.30
2023-03-08T04:55:21.150Z,19.88
2023-03-08T04:57:48.166Z,18.50
2023-03-08T05:00:15.695Z,22.95
2023-03-08T05:02:43.896Z,22.20
2023-03-08T05:05:16.251Z,22.98
2023-03-08T05:07:44.251Z,24.23
2023-03-08T05:10:11.982Z,25.88
2023-03-08T05:12:40.654Z,29.67
2023-03-08T05:15:08.060Z,32.97
2023-03-08T05:17:35.073Z,31.02
2023-03-08T05:20:02.069Z,46.45
2023-03-08T05:22:48.087Z,32.28
2023-03-08T05:25:22.685Z,39.08
2023-03-08T05:27:49.547Z,51.15
2023-03-08T05:30:18.350Z,34.35
2023-03-08T05:32:45.574Z,36.00
2023-03-08T05:35:12.534Z,45.05
2023-03-08T05:37:39.496Z,33.20
2023-03-08T05:40:07.800Z,50.33
2023-03-08T05:42:38.405Z,48.72
2023-03-08T05:45:06.555Z,50.10
2023-03-08T05:47:36.939Z,34.75
2023-03-08T05:50:08.664Z,36.97
2023-03-08T05:52:38.887Z,61.33
2023-03-08T05:55:06.398Z,36.63
2023-03-08T05:57:33.301Z,36.92
2023-03-08T06:00:00.329Z,39.53
2023-03-08T06:02:29.154Z,34.78
2023-03-08T06:04:56.128Z,35.38
2023-03-08T06:07:25.779Z,37.17
2023-03-08T06:09:57.033Z,32.63
2023-03-08T06:12:24.637Z,33.33
2023-03-08T06:14:54.958Z,38.25
2023-03-08T06:17:25.048Z,32.42
2023-03-08T06:19:54.102Z,35.22
2023-03-08T06:22:21.910Z,31.85
2023-03-08T06:24:49.934Z,34.17
2023-03-08T06:27:22.813Z,31.70
2023-03-08T06:29:52.434Z,29.23
2023-03-08T06:32:20.797Z,29.95
2023-03-08T06:34:47.845Z,35.35
2023-03-08T06:37:15.261Z,31.42
2023-03-08T06:39:42.317Z,30.45
2023-03-08T06:42:09.284Z,32.60
2023-03-08T06:44:37.197Z,32.80
2023-03-08T06:47:05.390Z,30.60
2023-03-08T06:49:32.194Z,31.92
2023-03-08T06:51:59.035Z,34.05
2023-03-08T06:54:27.314Z,30.75
2023-03-08T06:56:54.144Z,37.63
2023-03-08T06:59:21.306Z,33.75
2023-03-08T07:01:48.090Z,34.50
2023-03-08T07:04:15.114Z,39.25
2023-03-08T07:06:41.925Z,34.10
2023-03-08T07:09:08.741Z,37.08
2023-03-08T07:11:35.576Z,34.15
2023-03-08T07:14:02.415Z,37.17
2023-03-08T07:16:29.289Z,37.28
2023-03-08T07:18:56.963Z,38.90
2023-03-08T07:21:24.455Z,37.28
2023-03-08T07:23:53.061Z,34.40
2023-03-08T07:26:20.075Z,38.47
2023-03-08T07:28:51.146Z,39.30
2023-03-08T07:31:18.460Z,38.22
2023-03-08T07:33:45.639Z,38.55
2023-03-08T07:36:13.023Z,43.65
2023-03-08T07:38:40.025Z,33.78
2023-03-08T07:41:07.098Z,38.75
2023-03-08T07:43:34.088Z,37.05
2023-03-08T07:46:15.333Z,37.58
2023-03-08T07:48:42.363Z,33.95
2023-03-08T07:51:10.258Z,35.45
2023-03-08T07:53:38.067Z,40.42
2023-03-08T07:56:05.512Z,38.90
2023-03-08T07:58:32.366Z,40.88
2023-03-08T08:00:59.383Z,38.40
2023-03-08T08:03:26.576Z,40.55
2023-03-08T08:05:53.591Z,40.08
2023-03-08T08:08:20.446Z,39.33
2023-03-08T08:10:47.377Z,42.90
2023-03-08T08:13:14.189Z,40.78
2023-03-08T08:15:41.046Z,42.55
2023-03-08T08:18:07.992Z,44.25
2023-03-08T08:20:34.888Z,44.25
2023-03-08T08:23:01.714Z,43.47
2023-03-08T08:25:28.535Z,41.40
2023-03-08T08:27:55.438Z,49.55
2023-03-08T08:30:22.451Z,47.97
2023-03-08T08:32:49.392Z,53.00
2023-03-08T08:35:16.322Z,52.63
2023-03-08T08:37:43.157Z,47.47
2023-03-08T08:40:12.045Z,51.35
2023-03-08T08:42:38.962Z,49.53
2023-03-08T08:45:06.579Z,55.25
2023-03-08T08:47:33.427Z,53.80
2023-03-08T08:50:00.298Z,58.30
2023-03-08T08:52:27.055Z,55.80
2023-03-08T08:54:53.962Z,55.58
2023-03-08T08:57:20.868Z,60.40
2023-03-08T08:59:47.789Z,61.25
2023-03-08T09:02:15.079Z,57.35
2023-03-08T09:04:42.061Z,55.90
2023-03-08T09:07:09.074Z,60.47
2023-03-08T09:09:35.938Z,63.03
2023-03-08T09:12:02.755Z,68.60
2023-03-08T09:14:29.591Z,68.85
2023-03-08T09:16:56.635Z,65.13
2023-03-08T09:19:23.542Z,61.53
2023-03-08T09:21:50.367Z,65.65
2023-03-08T09:24:17.271Z,61.00
2023-03-08T09:26:44.125Z,64.88
2023-03-08T09:29:12.035Z,67.03
2023-03-08T09:31:42.290Z,72.50
2023-03-08T09:34:14.145Z,62.53
2023-03-08T09:36:41.907Z,69.72
2023-03-08T09:39:11.876Z,61.97
2023-03-08T09:41:49.588Z,61.17
2023-03-08T09:45:09.124Z,64.18
2023-03-08T09:47:54.617Z,59.92
2023-03-08T09:50:37.404Z,56.33
2023-03-08T09:53:14.477Z,58.95
2023-03-08T09:55:56.950Z,62.53
2023-03-08T09:58:51.824Z,60.90
2023-03-08T10:01:50.350Z,57.92
2023-03-08T10:04:47.266Z,54.35
2023-03-08T10:07:45.129Z,59.08
2023-03-08T10:10:41.899Z,59.15
2023-03-08T10:13:40.075Z,54.70
2023-03-08T10:16:16.544Z,49.60
2023-03-08T10:19:09.948Z,52.03
2023-03-08T10:21:41.600Z,48.92
2023-03-08T10:24:36.817Z,47.72
2023-03-08T10:27:19.847Z,44.63
2023-03-08T10:29:59.186Z,46.08
2023-03-08T10:32:28.734Z,46.80
2023-03-08T10:35:04.681Z,41.35
2023-03-08T10:37:33.696Z,41.78
2023-03-08T10:40:06.682Z,39.78
2023-03-08T10:42:35.329Z,37.63
2023-03-08T10:45:21.976Z,39.17
2023-03-08T10:48:04.730Z,42.25
2023-03-08T10:50:37.780Z,39.38
2023-03-08T10:53:19.871Z,43.30
2023-03-08T10:55:52.468Z,36.83
2023-03-08T10:58:32.492Z,40.20
2023-03-08T11:01:05.562Z,39.75
2023-03-08T11:03:33.873Z,36.45
2023-03-08T11:06:14.258Z,35.00
2023-03-08T11:08:57.140Z,34.50
2023-03-08T11:11:24.133Z,36.38
2023-03-08T11:13:53.225Z,35.30
2023-03-08T11:16:38.728Z,34.92
2023-03-08T11:19:59.354Z,36.85
2023-03-08T11:22:31.850Z,34.42
2023-03-08T11:25:14.939Z,38.33
2023-03-08T11:28:24.334Z,35.20
2023-03-08T11:31:22.201Z,34.85
2023-03-08T11:34:36.347Z,32.97
2023-03-08T11:37:16.814Z,33.50
2023-03-08T11:40:06.293Z,35.35
2023-03-08T11:43:22.795Z,30.80
2023-03-08T11:46:21.895Z,31.58
2023-03-08T11:49:21.418Z,30.45
2023-03-08T11:52:11.394Z,31.50
2023-03-08T11:55:23.356Z,28.92
2023-03-08T11:58:11.787Z,25.42
2023-03-08T12:00:43.456Z,29.30
2023-03-08T12:03:20.484Z,26.42
2023-03-08T12:05:57.414Z,26.83
2023-03-08T12:09:12.604Z,28.67
2023-03-08T12:11:47.757Z,24.15
2023-03-08T12:14:30.568Z,29.90
2023-03-08T12:17:17.856Z,33.38
2023-03-08T12:19:48.657Z,27.15
2023-03-08T12:22:33.672Z,31.10
2023-03-08T12:25:09.430Z,27.55
2023-03-08T12:27:55.527Z,26.92
2023-03-08T12:30:47.763Z,27.52
2023-03-08T12:33:17.488Z,27.75
2023-03-08T12:36:05.214Z,27.83
2023-03-08T12:38:44.714Z,27.50
2023-03-08T12:41:25.951Z,27.50
2023-03-08T12:44:22.451Z,26.80
2023-03-08T12:47:03.350Z,28.10
2023-03-08T12:49:38.197Z,33.20
2023-03-08T12:52:20.509Z,33.70
2023-03-08T12:55:01.049Z,33.90
2023-03-08T12:57:45.794Z,30.35
2023-03-08T13:00:37.733Z,29.52
2023-03-08T13:03:12.124Z,28.40
2023-03-08T13:05:45.205Z,28.85
2023-03-08T13:08:14.990Z,30.48
2023-03-08T13:10:50.811Z,31.23
2023-03-08T13:13:50.891Z,27.10
2023-03-08T13:16:35.961Z,27.90
2023-03-08T13:19:13.594Z,30.58
2023-03-08T13:22:07.147Z,29.42
2023-03-08T13:24:51.301Z,32.97
2023-03-08T13:27:48.026Z,31.05
2023-03-08T13:30:49.703Z,31.17
2023-03-08T13:33:25.771Z,30.55
2023-03-08T13:36:18.518Z,29.67
2023-03-08T13:38:59.138Z,31.20
2023-03-08T13:41:52.733Z,30.25
2023-03-08T13:44:24.763Z,30.13
2023-03-08T13:47:00.595Z,27.98
2023-03-08T13:49:32.532Z,34.25
2023-03-08T13:52:02.908Z,34.75
2023-03-08T13:54:38.346Z,31.17
2023-03-08T13:57:19.687Z,31.45
2023-03-08T13:59:52.869Z,29.75
2023-03-08T14:02:24.674Z,33.00
2023-03-08T14:04:51.992Z,34.97
2023-03-08T14:07:30.623Z,33.42
2023-03-08T14:09:58.457Z,43.70
2023-03-08T14:12:30.979Z,35.97
2023-03-08T14:15:03.312Z,36.67
2023-03-08T14:17:34.190Z,31.10
2023-03-08T14:20:23.920Z,35.47
2023-03-08T14:22:54.281Z,34.72
2023-03-08T14:25:31.336Z,40.80
2023-03-08T14:27:59.241Z,37.22
2023-03-08T14:30:29.866Z,37.83
2023-03-08T14:33:07.103Z,39.40
2023-03-08T14:35:39.603Z,42.15
2023-03-08T14:38:32.372Z,39.65
2023-03-08T14:41:06.254Z,36.10
2023-03-08T14:43:33.321Z,35.15
2023-03-08T14:46:07.584Z,35.55
2023-03-08T14:48:38.588Z,36.85
2023-03-08T14:51:27.274Z,34.97
2023-03-08T14:54:01.263Z,31.55
2023-03-08T14:56:30.969Z,32.08
2023-03-08T14:59:02.182Z,30.65
2023-03-08T15:01:35.546Z,35.35
2023-03-08T15:04:03.876Z,34.85
2023-03-08T15:06:36.693Z,33.47
2023-03-08T15:09:08.023Z,34.08
2023-03-08T15:11:36.059Z,29.88
2023-03-08T15:14:02.990Z,30.20
2023-03-08T15:16:29.897Z,28.08
2023-03-08T15:18:56.818Z,28.67
2023-03-08T15:21:28.782Z,32.92
2023-03-08T15:23:57.096Z,30.27
2023-03-08T15:26:32.210Z,28.75
2023-03-08T15:29:03.356Z,30.45
2023-03-08T15:31:32.043Z,30.20
2023-03-08T15:33:58.974Z,31.33
2023-03-08T15:36:26.251Z,29.50
2023-03-08T15:38:53.138Z,26.38
2023-03-08T15:41:19.927Z,27.35
2023-03-08T15:43:46.840Z,27.33
2023-03-08T15:46:15.310Z,24.05
2023-03-08T15:48:42.870Z,23.02
2023-03-08T15:51:19.218Z,21.92
2023-03-08T15:53:47.364Z,20.20
2023-03-08T15:56:14.771Z,22.05
2023-03-08T15:58:42.487Z,22.58
2023-03-08T16:01:09.335Z,18.38
2023-03-08T16:03:36.158Z,20.95
2023-03-08T16:06:04.037Z,18.02
2023-03-08T16:08:31.313Z,19.95
2023-03-08T16:11:03.671Z,18.55
2023-03-08T16:13:31.268Z,19.85
2023-03-08T16:16:03.233Z,22.40
2023-03-08T16:18:40.302Z,17.58
2023-03-08T16:21:11.101Z,22.40
2023-03-08T16:23:41.604Z,23.95
2023-03-08T16:26:17.637Z,20.90
2023-03-08T16:28:46.960Z,23.50
2023-03-08T16:31:16.136Z,22.77
2023-03-08T16:33:43.127Z,20.77
2023-03-08T16:36:12.148Z,22.63
2023-03-08T16:38:39.193Z,21.70
2023-03-08T16:41:12.555Z,21.13
2023-03-08T16:43:48.554Z,21.55
2023-03-08T16:46:24.556Z,22.70
2023-03-08T16:48:54.423Z,22.63
2023-03-08T16:51:25.182Z,22.30
2023-03-08T16:53:52.176Z,23.73
2023-03-08T16:56:22.216Z,24.95
2023-03-08T16:58:49.314Z,24.98
2023-03-08T17:01:18.901Z,22.67
2023-03-08T17:03:46.110Z,24.38
2023-03-08T17:06:16.714Z,23.48
2023-03-08T17:08:43.775Z,22.38
2023-03-08T17:11:23.578Z,22.33
2023-03-08T17:13:53.596Z,21.67
2023-03-08T17:16:24.693Z,24.70
2023-03-08T17:18:52.577Z,25.13
2023-03-08T17:21:21.868Z,23.83
2023-03-08T17:23:50.374Z,21.92
2023-03-08T17:26:20.694Z,29.52
2023-03-08T17:28:50.595Z,24.98
2023-03-08T17:31:21.203Z,27.55
2023-03-08T17:33:48.868Z,27.55
2023-03-08T17:36:16.389Z,26.77
2023-03-08T17:38:43.332Z,26.75
2023-03-08T17:41:14.281Z,28.38
2023-03-08T17:43:41.768Z,27.95
2023-03-08T17:46:14.448Z,28.80
2023-03-08T17:48:42.186Z,27.23
2023-03-08T17:51:13.112Z,26.08
2023-03-08T17:53:40.263Z,28.25
2023-03-08T17:56:13.741Z,29.70
2023-03-08T17:58:41.033Z,26.83
2023-03-08T18:01:14.613Z,29.65
2023-03-08T18:03:42.020Z,29.05
2023-03-08T18:06:19.697Z,28.33
2023-03-08T18:08:46.487Z,28.15
2023-03-08T18:11:13.311Z,27.92
2023-03-08T18:13:40.929Z,31.58
2023-03-08T18:16:08.323Z,32.75
2023-03-08T18:18:35.135Z,30.95
2023-03-08T18:21:12.604Z,32.42
2023-03-08T18:23:42.615Z,31.60
2023-03-08T18:26:11.710Z,32.08
2023-03-08T18:28:38.890Z,30.27
2023-03-08T18:31:12.476Z,32.47
2023-03-08T18:33:39.569Z,32.22
2023-03-08T18:36:06.971Z,32.55
2023-03-08T18:38:34.332Z,33.17
2023-03-08T18:41:11.164Z,35.35
2023-03-08T18:43:40.739Z,36.88
2023-03-08T18:46:11.859Z,36.72
2023-03-08T18:48:39.574Z,37.30
2023-03-08T18:51:06.692Z,35.17
2023-03-08T18:53:34.309Z,37.63
2023-03-08T18:56:03.976Z,36.65
2023-03-08T18:58:31.388Z,32.47
2023-03-08T19:01:00.193Z,34.78
2023-03-08T19:03:28.812Z,34.53
2023-03-08T19:05:56.503Z,35.75
2023-03-08T19:08:23.812Z,35.50
2023-03-08T19:10:50.612Z,34.05
2023-03-08T19:13:17.480Z,33.88
2023-03-08T19:15:44.322Z,31.83
2023-03-08T19:18:11.220Z,31.88
2023-03-08T19:20:41.099Z,33.05
2023-03-08T19:23:09.772Z,36.28
2023-03-08T19:26:04.639Z,32.75
2023-03-08T19:28:31.460Z,31.90
2023-03-08T19:30:58.528Z,33.72
2023-03-08T19:33:31.065Z,36.90
2023-03-08T19:35:59.260Z,34.20
2023-03-08T19:38:26.086Z,34.30
2023-03-08T19:40:52.956Z,33.22
2023-03-08T19:43:19.760Z,30.60
2023-03-08T19:45:50.337Z,31.92
2023-03-08T19:48:17.310Z,28.67
2023-03-08T19:50:47.344Z,28.20
2023-03-08T19:53:14.176Z,27.15
2023-03-08T19:55:52.229Z,27.90
2023-03-08T19:58:21.054Z,26.30
2023-03-08T20:00:48.467Z,30.00
2023-03-08T20:03:17.251Z,25.67
2023-03-08T20:05:47.503Z,24.50
2023-03-08T20:08:14.979Z,24.45
2023-03-08T20:10:41.867Z,24.85
2023-03-08T20:13:08.720Z,21.25
2023-03-08T20:15:35.597Z,21.25
2023-03-08T20:18:02.509Z,21.70
2023-03-08T20:20:29.511Z,23.73
2023-03-08T20:22:56.349Z,21.98
2023-03-08T20:25:23.412Z,21.40
2023-03-08T20:27:50.218Z,23.58
2023-03-08T20:30:17.301Z,24.02
2023-03-08T20:32:44.272Z,25.40
2023-03-08T20:35:15.031Z,20.45
2023-03-08T20:37:42.136Z,19.77
2023-03-08T20:40:13.117Z,22.83
2023-03-08T20:42:40.483Z,21.05
2023-03-08T20:45:08.349Z,22.08
2023-03-08T20:47:35.815Z,18.65
2023-03-08T20:50:03.002Z,23.30
2023-03-08T20:52:29.758Z,22.90
2023-03-08T20:54:56.650Z,22.23
2023-03-08T20:57:23.617Z,21.90
2023-03-08T20:59:50.513Z,20.88
2023-03-08T21:02:17.620Z,22.00
2023-03-08T21:04:44.493Z,23.05
2023-03-08T21:07:11.310Z,23.52
2023-03-08T21:09:38.071Z,23.38
2023-03-08T21:12:05.009Z,21.35
2023-03-08T21:14:31.861Z,21.85
2023-03-08T21:16:58.609Z,24.20
2023-03-08T21:19:25.409Z,23.38
2023-03-08T21:21:52.228Z,21.65
2023-03-08T21:24:22.724Z,28.30
2023-03-08T21:26:50.411Z,26.88
2023-03-08T21:29:20.437Z,29.42
2023-03-08T21:31:52.339Z,26.05
2023-03-08T21:34:20.334Z,26.52
2023-03-08T21:36:47.252Z,28.92
2023-03-08T21:39:14.640Z,28.30
2023-03-08T21:41:45.329Z,26.95
2023-03-08T21:44:16.837Z,29.27
2023-03-08T21:46:45.145Z,26.05
2023-03-08T21:49:19.305Z,28.10
2023-03-08T21:51:46.145Z,27.50
2023-03-08T21:54:13.315Z,28.08
2023-03-08T21:56:40.454Z,28.38
2023-03-08T21:59:07.447Z,25.98
2023-03-08T22:01:34.632Z,25.30
2023-03-08T22:04:03.201Z,26.25
2023-03-08T22:06:30.806Z,25.70
2023-03-08T22:08:57.881Z,24.65
2023-03-08T22:11:26.069Z,27.52
2023-03-08T22:13:58.914Z,25.50
2023-03-08T22:16:28.195Z,26.35
2023-03-08T22:19:01.418Z,25.05
2023-03-08T22:21:29.047Z,22.23
2023-03-08T22:23:59.242Z,26.70
2023-03-08T22:26:28.683Z,22.55
2023-03-08T22:28:56.577Z,22.25
2023-03-08T22:31:26.566Z,23.58
2023-03-08T22:33:53.850Z,22.92
2023-03-08T22:36:22.056Z,22.88
2023-03-08T22:38:49.067Z,24.25
2023-03-08T22:41:21.133Z,23.70
2023-03-08T22:43:49.329Z,24.35
2023-03-08T22:46:23.481Z,22.85
2023-03-08T22:48:51.948Z,22.25
2023-03-08T22:51:21.732Z,23.05
2023-03-08T22:53:49.506Z,23.05
2023-03-08T22:56:33.137Z,21.00
2023-03-08T22:59:01.992Z,21.42
2023-03-08T23:01:30.747Z,22.67
2023-03-08T23:03:59.762Z,21.65
2023-03-08T23:06:28.774Z,22.75
2023-03-08T23:08:58.334Z,21.65
2023-03-08T23:11:25.832Z,22.95
2023-03-08T23:13:53.664Z,20.30
2023-03-08T23:16:21.282Z,22.80
2023-03-08T23:18:50.981Z,21.80
2023-03-08T23:21:20.320Z,22.92
2023-03-08T23:23:47.534Z,24.65
2023-03-08T23:26:20.772Z,24.38
2023-03-08T23:28:48.042Z,21.35
2023-03-08T23:31:20.019Z,21.58
2023-03-08T23:33:48.246Z,22.52
2023-03-08T23:36:19.670Z,22.20
2023-03-08T23:38:47.080Z,22.42
2023-03-08T23:41:14.983Z,25.20
2023-03-08T23:43:43.115Z,23.15
2023-03-08T23:46:18.950Z,22.42
2023-03-08T23:48:47.819Z,24.60
2023-03-08T23:51:19.109Z,23.63
2023-03-08T23:53:49.865Z,24.10
2023-03-08T23:56:38.362Z,24.77
2023-03-08T23:59:18.887Z,24.45
